Time,TemperatureF,DewpointF,PressureIn,WindDirection,WindDirectionDegrees,WindSpeedMPH,WindSpeedGustMPH,Humidity,HourlyPrecipIn,Conditions,Clouds,dailyrainin,SoftwareType,DateUTC
2013-01-31 00:03:00,46.0,45.0,-100.00,SSW,210,2.0,4.0,97,0.01,,,-99.99,,2013-01-31 05:03:00,
2013-01-31 00:11:00,44.0,44.0,-100.00,ESE,110,1.0,4.0,97,0.00,,,-99.99,,2013-01-31 05:11:00,
2013-01-31 00:22:00,42.0,41.0,-100.00,ENE,70,1.0,3.0,97,0.00,,,-99.99,,2013-01-31 05:22:00,
2013-01-31 00:32:00,42.0,41.0,-100.00,ENE,70,1.0,3.0,97,0.00,,,-99.99,,2013-01-31 05:32:00,
2013-01-31 00:42:00,42.0,41.0,-100.00,WNW,285,1.0,2.0,97,0.00,,,-99.99,,2013-01-31 05:42:00,
2013-01-31 00:52:00,42.0,41.0,-100.00,WNW,285,1.0,2.0,97,0.00,,,-99.99,,2013-01-31 05:52:00,
2013-01-31 01:01:00,42.0,41.0,-100.00,WNW,285,1.0,2.0,97,0.00,,,-99.99,,2013-01-31 06:01:00,
2013-01-31 01:10:00,42.0,41.0,-100.00,WNW,285,1.0,2.0,97,0.00,,,-99.99,,2013-01-31 06:10:00,
2013-01-31 09:03:00,50.0,49.0,-100.00,NW,320,4.0,11.0,97,0.06,,,-99.99,,2013-01-31 14:03:00,
2013-01-31 09:11:00,44.0,44.0,-100.00,NW,310,9.0,22.0,97,0.03,,,-99.99,,2013-01-31 14:11:00,
2013-01-31 09:22:00,44.0,43.0,-100.00,NNW,335,10.0,22.0,97,0.00,,,-99.99,,2013-01-31 14:22:00,
2013-01-31 09:32:00,43.0,42.0,-100.00,WNW,295,7.0,24.0,96,0.00,,,-99.99,,2013-01-31 14:32:00,
2013-01-31 09:42:00,43.0,41.0,-100.00,West,280,9.0,21.0,92,0.00,,,-99.99,,2013-01-31 14:42:00,
2013-01-31 09:52:00,42.0,39.0,-100.00,WNW,285,6.0,17.0,89,0.01,,,-99.99,,2013-01-31 14:52:00,
2013-01-31 10:03:00,41.0,37.0,-100.00,West,280,5.0,17.0,87,0.01,,,-99.99,,2013-01-31 15:03:00,
2013-01-31 10:12:00,40.0,36.0,-100.00,NW,305,6.0,19.0,85,0.01,,,-99.99,,2013-01-31 15:12:00,
2013-01-31 10:22:00,40.0,36.0,-100.00,West,270,5.0,19.0,87,0.14,,,-99.99,,2013-01-31 15:22:00,
2013-01-31 10:32:00,39.0,36.0,-100.00,WNW,295,10.0,21.0,88,0.03,,,-99.99,,2013-01-31 15:32:00,
2013-01-31 10:42:00,38.0,35.0,-100.00,WNW,285,6.0,17.0,88,0.00,,,-99.99,,2013-01-31 15:42:00,
2013-01-31 10:51:00,37.0,34.0,-100.00,North,-999,-999.0,-999.0,88,0.00,,,-99.99,,2013-01-31 15:51:00,
2013-01-31 11:03:00,37.0,34.0,-100.00,WNW,295,7.0,16.0,88,0.01,,,-99.99,,2013-01-31 16:03:00,
2013-01-31 11:12:00,37.0,34.0,-100.00,West,280,3.0,14.0,89,0.00,,,-99.99,,2013-01-31 16:12:00,
2013-01-31 11:22:00,37.0,34.0,-100.00,SW,225,2.0,6.0,89,0.00,,,-99.99,,2013-01-31 16:22:00,
2013-01-31 11:33:00,37.0,34.0,-100.00,NW,310,1.0,4.0,88,0.00,,,-99.99,,2013-01-31 16:33:00,
2013-01-31 11:42:00,37.0,34.0,-100.00,NNW,335,2.0,4.0,88,0.00,,,-99.99,,2013-01-31 16:42:00,
2013-01-31 11:52:00,38.0,32.0,-100.00,NNW,340,2.0,11.0,80,0.00,,,-99.99,,2013-01-31 16:52:00,
2013-01-31 12:03:00,38.0,31.0,-100.00,WNW,295,6.0,11.0,76,0.00,,,-99.99,,2013-01-31 17:03:00,
2013-01-31 12:12:00,38.0,29.0,-100.00,NW,305,6.0,20.0,70,0.00,,,-99.99,,2013-01-31 17:12:00,
2013-01-31 12:23:00,37.0,28.0,-100.00,WNW,295,5.0,18.0,68,0.00,,,-99.99,,2013-01-31 17:23:00,
2013-01-31 12:32:00,37.0,27.0,-100.00,WNW,300,6.0,14.0,67,0.00,,,-99.99,,2013-01-31 17:32:00,
2013-01-31 12:43:00,37.0,26.0,-100.00,NW,315,6.0,17.0,65,0.00,,,-99.99,,2013-01-31 17:43:00,
2013-01-31 12:53:00,37.0,25.0,-100.00,NW,305,7.0,15.0,63,0.00,,,-99.99,,2013-01-31 17:53:00,
2013-01-31 13:03:00,37.0,26.0,-100.00,NW,305,8.0,16.0,63,0.00,,,-99.99,,2013-01-31 18:03:00,
2013-01-31 13:12:00,36.0,25.0,-100.00,WNW,290,7.0,15.0,63,0.00,,,-99.99,,2013-01-31 18:12:00,
2013-01-31 13:22:00,36.0,25.0,-100.00,WNW,285,8.0,19.0,63,0.00,,,-99.99,,2013-01-31 18:22:00,
2013-01-31 13:32:00,36.0,24.0,-100.00,WNW,300,9.0,17.0,63,0.00,,,-99.99,,2013-01-31 18:32:00,
2013-01-31 13:43:00,36.0,24.0,-100.00,NW,320,6.0,14.0,60,0.00,,,-99.99,,2013-01-31 18:43:00,
2013-01-31 13:52:00,37.0,23.0,-100.00,NW,305,7.0,14.0,57,0.00,,,-99.99,,2013-01-31 18:52:00,
2013-01-31 14:02:00,37.0,20.0,-100.00,WNW,300,9.0,20.0,49,0.00,,,-99.99,,2013-01-31 19:02:00,
2013-01-31 14:12:00,36.0,19.0,-100.00,West,275,3.0,19.0,48,0.00,,,-99.99,,2013-01-31 19:12:00,
2013-01-31 14:22:00,36.0,18.0,-100.00,WSW,250,6.0,17.0,47,0.00,,,-99.99,,2013-01-31 19:22:00,
2013-01-31 14:33:00,36.0,18.0,-100.00,WNW,295,7.0,14.0,48,0.00,,,-99.99,,2013-01-31 19:33:00,
2013-01-31 14:42:00,35.0,18.0,-100.00,WNW,290,7.0,20.0,49,0.00,,,-99.99,,2013-01-31 19:42:00,
2013-01-31 14:52:00,35.0,17.0,-100.00,WNW,290,8.0,21.0,48,0.00,,,-99.99,,2013-01-31 19:52:00,
2013-01-31 15:02:00,35.0,17.0,-100.00,WNW,300,5.0,19.0,47,0.00,,,-99.99,,2013-01-31 20:02:00,
2013-01-31 15:11:00,34.0,17.0,-100.00,WNW,290,5.0,16.0,47,0.00,,,-99.99,,2013-01-31 20:11:00,
2013-01-31 15:22:00,34.0,14.0,-100.00,West,265,6.0,15.0,43,0.00,,,-99.99,,2013-01-31 20:22:00,
2013-01-31 15:32:00,33.0,14.0,-100.00,West,270,8.0,21.0,45,0.00,,,-99.99,,2013-01-31 20:32:00,
2013-01-31 15:42:00,33.0,14.0,-100.00,WSW,255,4.0,15.0,44,0.00,,,-99.99,,2013-01-31 20:42:00,
2013-01-31 15:52:00,33.0,13.0,-100.00,West,265,7.0,17.0,44,0.00,,,-99.99,,2013-01-31 20:52:00,
2013-01-31 16:02:00,32.0,13.0,-100.00,WSW,255,7.0,17.0,44,0.00,,,-99.99,,2013-01-31 21:02:00,
2013-01-31 16:12:00,32.0,13.0,-100.00,WSW,255,2.0,15.0,44,0.00,,,-99.99,,2013-01-31 21:12:00,
2013-01-31 16:22:00,32.0,13.0,-100.00,West,265,4.0,16.0,45,0.00,,,-99.99,,2013-01-31 21:22:00,
2013-01-31 16:32:00,32.0,13.0,-100.00,West,280,7.0,17.0,44,0.00,,,-99.99,,2013-01-31 21:32:00,
2013-01-31 16:42:00,31.0,13.0,-100.00,West,270,4.0,9.0,44,0.00,,,-99.99,,2013-01-31 21:42:00,
2013-01-31 16:52:00,31.0,12.0,-100.00,West,265,6.0,12.0,43,0.00,,,-99.99,,2013-01-31 21:52:00,
2013-01-31 17:03:00,31.0,12.0,-100.00,West,265,8.0,22.0,43,0.00,,,-99.99,,2013-01-31 22:03:00,
2013-01-31 17:11:00,31.0,13.0,-100.00,WSW,250,4.0,13.0,46,0.00,,,-99.99,,2013-01-31 22:11:00,
2013-01-31 17:22:00,31.0,11.0,-100.00,WNW,295,5.0,12.0,43,0.00,,,-99.99,,2013-01-31 22:22:00,
2013-01-31 17:33:00,30.0,11.0,-100.00,WSW,255,4.0,15.0,42,0.00,,,-99.99,,2013-01-31 22:33:00,
2013-01-31 17:42:00,30.0,11.0,-100.00,WSW,255,3.0,15.0,42,0.00,,,-99.99,,2013-01-31 22:42:00,
2013-01-31 17:51:00,30.0,11.0,-100.00,WNW,290,4.0,12.0,43,0.00,,,-99.99,,2013-01-31 22:51:00,
2013-01-31 18:03:00,30.0,11.0,-100.00,West,265,6.0,14.0,44,0.00,,,-99.99,,2013-01-31 23:03:00,
2013-01-31 18:22:00,29.0,10.0,-100.00,West,280,5.0,13.0,43,0.00,,,-99.99,,2013-01-31 23:22:00,
2013-01-31 18:32:00,29.0,10.0,-100.00,NW,305,6.0,14.0,43,0.00,,,-99.99,,2013-01-31 23:32:00,
2013-01-31 18:42:00,29.0,11.0,-100.00,WNW,295,7.0,20.0,44,0.00,,,-99.99,,2013-01-31 23:42:00,
2013-01-31 18:52:00,29.0,10.0,-100.00,WNW,295,11.0,22.0,45,0.00,,,-99.99,,2013-01-31 23:52:00,
2013-01-31 19:01:00,28.0,12.0,-100.00,West,270,9.0,22.0,49,0.00,,,-99.99,,2013-02-01 00:01:00,
2013-01-31 19:11:00,28.0,11.0,-100.00,WNW,300,8.0,21.0,47,0.00,,,-99.99,,2013-02-01 00:11:00,
2013-01-31 19:22:00,28.0,11.0,-100.00,WNW,300,8.0,17.0,47,0.00,,,-99.99,,2013-02-01 00:22:00,
2013-01-31 19:32:00,28.0,11.0,-100.00,WNW,300,6.0,19.0,49,0.00,,,-99.99,,2013-02-01 00:32:00,
2013-01-31 19:42:00,28.0,12.0,-100.00,West,275,9.0,17.0,51,0.00,,,-99.99,,2013-02-01 00:42:00,
2013-01-31 19:51:00,27.0,14.0,-100.00,WNW,290,9.0,21.0,57,0.00,,,-99.99,,2013-02-01 00:51:00,
2013-01-31 20:01:00,26.0,15.0,-100.00,WNW,285,9.0,27.0,62,0.00,,,-99.99,,2013-02-01 01:01:00,
2013-01-31 20:11:00,26.0,14.0,-100.00,WNW,285,9.0,22.0,61,0.00,,,-99.99,,2013-02-01 01:11:00,
2013-01-31 20:21:00,26.0,14.0,-100.00,West,270,8.0,23.0,61,0.00,,,-99.99,,2013-02-01 01:21:00,
2013-01-31 20:32:00,26.0,13.0,-100.00,West,270,7.0,19.0,58,0.00,,,-99.99,,2013-02-01 01:32:00,
2013-01-31 20:42:00,26.0,13.0,-100.00,West,280,7.0,17.0,57,0.00,,,-99.99,,2013-02-01 01:42:00,
2013-01-31 20:52:00,26.0,10.0,-100.00,West,275,7.0,29.0,51,0.00,,,-99.99,,2013-02-01 01:52:00,
2013-01-31 21:02:00,26.0,8.0,-100.00,West,280,9.0,21.0,47,0.00,,,-99.99,,2013-02-01 02:02:00,
2013-01-31 21:11:00,26.0,5.0,-100.00,WNW,300,9.0,18.0,40,0.00,,,-99.99,,2013-02-01 02:11:00,
2013-01-31 21:21:00,26.0,5.0,-100.00,WNW,285,8.0,25.0,41,0.00,,,-99.99,,2013-02-01 02:21:00,
2013-01-31 21:32:00,25.0,4.0,-100.00,WNW,295,12.0,30.0,40,0.00,,,-99.99,,2013-02-01 02:32:00,
2013-01-31 21:42:00,25.0,4.0,-100.00,WNW,300,9.0,23.0,41,0.00,,,-99.99,,2013-02-01 02:42:00,
2013-01-31 21:52:00,24.0,4.0,-100.00,WNW,300,9.0,20.0,41,0.00,,,-99.99,,2013-02-01 02:52:00,
2013-01-31 22:02:00,24.0,5.0,-100.00,NW,310,4.0,19.0,43,0.00,,,-99.99,,2013-02-01 03:02:00,
2013-01-31 22:12:00,24.0,6.0,-100.00,NNW,330,6.0,19.0,44,0.00,,,-99.99,,2013-02-01 03:12:00,
2013-01-31 22:21:00,24.0,4.0,-100.00,WNW,290,9.0,21.0,41,0.00,,,-99.99,,2013-02-01 03:21:00,
2013-01-31 22:33:00,24.0,4.0,-100.00,West,270,6.0,19.0,41,0.00,,,-99.99,,2013-02-01 03:33:00,
2013-01-31 22:42:00,23.0,4.0,-100.00,West,275,7.0,19.0,41,0.00,,,-99.99,,2013-02-01 03:42:00,
2013-01-31 22:51:00,24.0,4.0,-100.00,WNW,290,4.0,24.0,42,0.00,,,-99.99,,2013-02-01 03:51:00,
2013-01-31 23:02:00,23.0,3.0,-100.00,West,275,5.0,14.0,41,0.00,,,-99.99,,2013-02-01 04:02:00,
2013-01-31 23:11:00,23.0,3.0,-100.00,West,270,6.0,12.0,41,0.00,,,-99.99,,2013-02-01 04:11:00,
2013-01-31 23:21:00,23.0,3.0,-100.00,West,270,6.0,12.0,41,0.00,,,-99.99,,2013-02-01 04:21:00,
2013-01-31 23:32:00,23.0,3.0,-100.00,West,270,6.0,12.0,41,0.00,,,-99.99,,2013-02-01 04:32:00,
2013-01-31 23:41:00,22.0,2.0,-100.00,West,275,6.0,16.0,41,0.00,,,-99.99,,2013-02-01 04:41:00,
2013-01-31 23:51:00,22.0,2.0,-100.00,West,270,7.0,12.0,41,0.00,,,-99.99,,2013-02-01 04:51:00,